createdAt,value
2019-01-21T05:02:51.198Z,6.10
2019-01-21T05:05:54.403Z,6.03
2019-01-21T05:09:20.401Z,6.47
2019-01-21T05:12:45.990Z,6.20
2019-01-21T05:16:09.544Z,5.70
2019-01-21T05:19:25.035Z,6.50
2019-01-21T05:22:25.341Z,7.53
2019-01-21T05:25:42.583Z,11.07
2019-01-21T05:28:42.291Z,20.33
2019-01-21T05:31:30.006Z,21.63
2019-01-21T05:34:36.444Z,22.53
2019-01-21T05:37:38.874Z,20.17
2019-01-21T05:40:39.110Z,18.83
2019-01-21T05:44:04.401Z,17.17
2019-01-21T05:47:21.030Z,17.37
2019-01-21T05:50:20.009Z,15.47
2019-01-21T05:53:42.727Z,14.87
2019-01-21T05:56:53.440Z,15.70
2019-01-21T05:59:49.193Z,15.20
2019-01-21T06:02:52.692Z,15.50
2019-01-21T06:05:59.322Z,14.80
2019-01-21T06:09:05.278Z,14.50
2019-01-21T06:12:17.438Z,15.03
2019-01-21T06:15:40.057Z,13.37
2019-01-21T06:18:33.920Z,14.63
2019-01-21T06:21:35.812Z,14.23
2019-01-21T06:24:23.664Z,13.57
2019-01-21T06:27:30.547Z,13.50
2019-01-21T06:30:19.016Z,14.70
2019-01-21T06:33:28.663Z,13.63
2019-01-21T06:36:21.179Z,14.83
2019-01-21T06:39:49.378Z,12.97
2019-01-21T06:42:42.618Z,13.10
2019-01-21T06:45:49.779Z,13.37
2019-01-21T06:48:55.683Z,14.47
2019-01-21T06:52:05.904Z,12.67
2019-01-21T06:55:21.362Z,13.30
2019-01-21T06:58:41.021Z,13.20
2019-01-21T07:01:54.886Z,11.83
2019-01-21T07:04:48.154Z,11.80
2019-01-21T07:07:56.185Z,11.23
2019-01-21T07:10:41.150Z,12.30
2019-01-21T07:14:03.644Z,13.37
2019-01-21T07:17:26.342Z,10.33
2019-01-21T07:20:29.697Z,12.93
2019-01-21T07:23:39.406Z,12.17
2019-01-21T07:26:36.946Z,12.47
2019-01-21T07:29:53.576Z,12.00
2019-01-21T07:33:13.476Z,11.60
2019-01-21T07:36:39.571Z,12.43
2019-01-21T07:39:41.641Z,11.00
2019-01-21T07:42:48.818Z,10.33
2019-01-21T07:45:42.342Z,11.00
2019-01-21T07:49:04.948Z,11.73
2019-01-21T07:52:41.310Z,11.23
2019-01-21T07:55:52.832Z,11.30
2019-01-21T07:58:54.050Z,11.73
2019-01-21T08:01:29.274Z,11.10
2019-01-21T08:04:36.942Z,10.53
2019-01-21T08:08:02.099Z,11.70
2019-01-21T08:11:10.972Z,10.83
2019-01-21T08:14:16.616Z,9.97
2019-01-21T08:17:34.938Z,10.70
2019-01-21T08:20:29.930Z,10.60
2019-01-21T08:23:30.371Z,10.60
2019-01-21T08:26:46.161Z,10.47
2019-01-21T08:29:54.662Z,10.00
2019-01-21T08:32:54.468Z,10.67
2019-01-21T08:35:56.337Z,9.83
2019-01-21T08:39:05.876Z,9.60
2019-01-21T08:42:24.539Z,10.80
2019-01-21T08:45:32.339Z,10.03
2019-01-21T08:48:22.310Z,10.73
2019-01-21T08:51:47.843Z,9.10
2019-01-21T08:54:47.660Z,9.00
2019-01-21T08:58:01.302Z,10.17
2019-01-21T09:01:01.425Z,10.07
2019-01-21T09:04:00.912Z,8.27
2019-01-21T09:07:10.642Z,9.97
2019-01-21T09:09:47.765Z,8.47
2019-01-21T09:12:29.413Z,9.30
2019-01-21T09:15:27.106Z,8.57
2019-01-21T09:18:19.425Z,9.00
2019-01-21T09:21:13.283Z,8.53
2019-01-21T09:24:36.148Z,9.60
2019-01-21T09:27:47.125Z,9.60
2019-01-21T09:30:53.693Z,9.20
2019-01-21T09:33:43.754Z,9.40
2019-01-21T09:36:49.213Z,8.10
2019-01-21T09:39:44.828Z,8.07
2019-01-21T09:42:51.833Z,9.77
2019-01-21T09:46:02.931Z,9.23
2019-01-21T09:48:32.370Z,7.87
2019-01-21T09:51:06.049Z,7.93
2019-01-21T09:53:37.201Z,7.80
2019-01-21T09:56:07.589Z,8.87
2019-01-21T09:58:38.446Z,8.67
2019-01-21T10:01:10.100Z,8.23
2019-01-21T10:03:40.369Z,8.77
2019-01-21T10:06:10.551Z,8.50
2019-01-21T10:09:17.049Z,8.57
2019-01-21T10:12:22.437Z,7.80
2019-01-21T10:15:30.051Z,8.60
2019-01-21T10:18:42.851Z,8.33
2019-01-21T10:21:47.058Z,8.33
2019-01-21T10:24:48.630Z,8.57
2019-01-21T10:28:11.466Z,8.53
2019-01-21T10:31:19.780Z,8.10
2019-01-21T10:34:17.370Z,8.90
2019-01-21T10:37:39.568Z,9.17
2019-01-21T10:40:52.258Z,7.97
2019-01-21T10:43:48.139Z,8.67
2019-01-21T10:46:51.383Z,7.33
2019-01-21T10:49:46.462Z,8.07
2019-01-21T10:52:54.028Z,7.77
2019-01-21T10:56:01.682Z,7.57
2019-01-21T10:59:15.925Z,8.57
2019-01-21T11:02:30.409Z,8.07
2019-01-21T11:05:45.886Z,9.47
2019-01-21T11:08:50.021Z,7.87
2019-01-21T11:11:56.449Z,7.20
2019-01-21T11:15:09.570Z,7.77
2019-01-21T11:18:14.088Z,7.30
2019-01-21T11:21:09.398Z,8.00
2019-01-21T11:24:18.792Z,8.47
2019-01-21T11:27:23.901Z,7.27
2019-01-21T11:30:58.518Z,8.07
2019-01-21T11:34:01.390Z,8.97
2019-01-21T11:37:06.565Z,7.17
2019-01-21T11:40:14.057Z,7.17
2019-01-21T11:43:34.606Z,6.97
2019-01-21T11:46:29.041Z,7.83
2019-01-21T11:49:43.683Z,7.80
2019-01-21T11:53:06.474Z,7.10
2019-01-21T11:56:16.899Z,7.27
2019-01-21T11:59:36.784Z,7.00
2019-01-21T12:02:56.801Z,7.03
2019-01-21T12:05:43.497Z,7.87
2019-01-21T12:09:02.052Z,7.20
2019-01-21T12:11:58.116Z,7.47
2019-01-21T12:14:49.989Z,6.83
2019-01-21T12:18:00.722Z,7.30
2019-01-21T12:21:07.576Z,6.90
2019-01-21T12:24:01.300Z,7.10
2019-01-21T12:27:14.346Z,7.40
2019-01-21T12:30:35.936Z,6.30
2019-01-21T12:33:42.398Z,6.97
2019-01-21T12:36:43.329Z,6.30
2019-01-21T12:39:56.476Z,7.50
2019-01-21T12:42:54.285Z,6.83
2019-01-21T12:45:52.205Z,6.57
2019-01-21T12:48:51.214Z,7.20
2019-01-21T12:51:49.005Z,6.70
2019-01-21T12:55:08.991Z,6.07
2019-01-21T12:58:19.541Z,6.67
2019-01-21T13:01:26.615Z,6.70
2019-01-21T13:04:25.877Z,5.73
2019-01-21T13:07:37.586Z,7.00
2019-01-21T13:10:30.275Z,6.83
2019-01-21T13:13:33.423Z,6.50
2019-01-21T13:16:59.294Z,6.47
2019-01-21T13:20:03.434Z,6.93
2019-01-21T13:23:17.322Z,6.40
2019-01-21T13:26:45.083Z,6.77
2019-01-21T13:29:54.493Z,6.43
2019-01-21T13:32:45.291Z,6.73
2019-01-21T13:35:40.064Z,7.03
2019-01-21T13:38:35.318Z,6.40
2019-01-21T13:41:35.551Z,7.20
2019-01-21T13:44:43.103Z,7.33
2019-01-21T13:47:44.463Z,6.07
2019-01-21T13:50:37.287Z,6.70
2019-01-21T13:53:56.224Z,6.80
2019-01-21T13:57:12.329Z,6.20
2019-01-21T14:00:13.585Z,6.77
2019-01-21T14:02:54.680Z,6.40
2019-01-21T14:06:03.180Z,5.63
2019-01-21T14:09:09.376Z,6.30
2019-01-21T14:11:59.609Z,6.20
2019-01-21T14:15:37.782Z,5.73
2019-01-21T14:18:31.030Z,6.47
2019-01-21T14:21:19.226Z,6.30
2019-01-21T14:24:39.129Z,6.57
2019-01-21T14:27:51.165Z,5.70
2019-01-21T14:30:51.042Z,6.33
2019-01-21T14:33:36.957Z,6.30
2019-01-21T14:36:30.240Z,6.63
2019-01-21T14:39:31.878Z,5.80
2019-01-21T14:42:33.269Z,6.87
2019-01-21T14:45:49.589Z,5.60
2019-01-21T14:48:46.464Z,5.37
2019-01-21T14:51:55.706Z,6.23
2019-01-21T14:54:50.915Z,5.67
2019-01-21T14:57:56.574Z,6.23
2019-01-21T15:01:09.193Z,6.17
2019-01-21T15:04:19.073Z,6.50
2019-01-21T15:07:16.120Z,5.50
2019-01-21T15:10:28.536Z,5.33
2019-01-21T15:13:52.045Z,5.83
2019-01-21T15:17:01.736Z,5.70
2019-01-21T15:19:47.132Z,5.73
2019-01-21T15:22:56.477Z,5.43
2019-01-21T15:25:58.089Z,5.33
2019-01-21T15:28:47.103Z,5.53
2019-01-21T15:31:24.928Z,5.87
2019-01-21T15:34:44.521Z,5.00
2019-01-21T15:38:13.169Z,4.63
2019-01-21T15:41:04.146Z,5.40
2019-01-21T15:43:45.805Z,5.13
2019-01-21T15:46:51.088Z,6.10
2019-01-21T15:50:05.392Z,5.20
2019-01-21T15:53:09.769Z,5.60
2019-01-21T15:55:51.762Z,5.50
2019-01-21T15:59:03.626Z,5.33
2019-01-21T16:01:51.906Z,5.00
2019-01-21T16:04:57.003Z,5.10
2019-01-21T16:07:51.609Z,5.40
2019-01-21T16:11:17.253Z,5.50
2019-01-21T16:14:01.458Z,5.70
2019-01-21T16:17:23.831Z,5.10
2019-01-21T16:20:04.481Z,4.83
2019-01-21T16:23:03.791Z,5.23
2019-01-21T16:25:44.820Z,5.97
2019-01-21T16:28:46.180Z,5.00
2019-01-21T16:31:55.384Z,5.80
2019-01-21T16:35:08.493Z,6.40
2019-01-21T16:38:04.072Z,7.00
2019-01-21T16:41:20.655Z,8.20
2019-01-21T16:43:50.690Z,7.87
2019-01-21T16:46:20.402Z,7.80
2019-01-21T16:48:50.489Z,7.60
2019-01-21T16:51:21.914Z,7.67
2019-01-21T16:53:51.918Z,6.63
2019-01-21T16:56:23.587Z,7.47
2019-01-21T16:58:53.278Z,6.40
2019-01-21T17:01:23.337Z,7.13
2019-01-21T17:03:54.150Z,6.10
2019-01-21T17:06:24.067Z,7.07
2019-01-21T17:08:53.857Z,7.10
2019-01-21T17:11:23.618Z,7.73
2019-01-21T17:13:53.656Z,6.57
2019-01-21T17:16:23.912Z,6.90
2019-01-21T17:18:55.054Z,7.17
2019-01-21T17:21:27.058Z,7.07
2019-01-21T17:23:58.435Z,6.73
2019-01-21T17:26:28.924Z,6.40
2019-01-21T17:28:58.696Z,7.03
2019-01-21T17:31:29.412Z,7.03
2019-01-21T17:34:00.265Z,6.60
2019-01-21T17:36:29.969Z,6.10
2019-01-21T17:38:59.834Z,6.83
2019-01-21T17:41:29.597Z,6.43
2019-01-21T17:44:00.356Z,6.37
2019-01-21T17:46:30.120Z,6.20
2019-01-21T17:49:00.045Z,6.00
2019-01-21T17:51:33.781Z,6.33
2019-01-21T17:54:04.185Z,6.77
2019-01-21T17:56:33.905Z,6.03
2019-01-21T17:59:03.639Z,6.30
2019-01-21T18:01:39.095Z,6.13
2019-01-21T18:04:05.919Z,5.70
2019-01-21T18:06:35.737Z,6.50
2019-01-21T18:09:08.842Z,5.80
2019-01-21T18:11:41.381Z,5.43
2019-01-21T18:14:11.524Z,5.70
2019-01-21T18:16:41.485Z,6.00
2019-01-21T18:19:11.159Z,5.93
2019-01-21T18:21:41.000Z,6.07
2019-01-21T18:24:10.683Z,5.43
2019-01-21T18:26:40.498Z,6.90
2019-01-21T18:29:10.351Z,6.27
2019-01-21T18:31:40.641Z,5.80
2019-01-21T18:34:10.473Z,5.80
2019-01-21T18:36:40.241Z,5.93
2019-01-21T18:39:14.657Z,6.17
2019-01-21T18:41:44.498Z,6.40
2019-01-21T18:44:15.315Z,5.50
2019-01-21T18:46:45.207Z,7.10
2019-01-21T18:49:22.671Z,5.97
2019-01-21T18:51:47.957Z,5.90
2019-01-21T18:54:20.104Z,6.30
2019-01-21T18:56:50.443Z,6.30
2019-01-21T18:59:20.188Z,5.67
2019-01-21T19:01:50.141Z,6.67
2019-01-21T19:04:21.706Z,6.90
2019-01-21T19:06:51.486Z,5.93
2019-01-21T19:09:21.302Z,6.03
2019-01-21T19:11:51.207Z,5.73
2019-01-21T19:14:21.412Z,6.07
2019-01-21T19:16:51.029Z,6.17
2019-01-21T19:19:23.002Z,6.10
2019-01-21T19:21:53.729Z,5.80
2019-01-21T19:24:24.984Z,6.10
2019-01-21T19:26:54.822Z,6.80
2019-01-21T19:29:24.596Z,5.83
2019-01-21T19:31:55.619Z,5.70
2019-01-21T19:34:25.472Z,6.20
2019-01-21T19:36:57.037Z,6.07
2019-01-21T19:39:29.790Z,6.17
2019-01-21T19:41:59.622Z,6.20
2019-01-21T19:44:29.996Z,5.70
2019-01-21T19:47:01.246Z,6.50
2019-01-21T19:49:31.660Z,5.80
2019-01-21T19:52:03.604Z,5.90
2019-01-21T19:54:34.308Z,6.70
2019-01-21T19:57:04.124Z,6.97
2019-01-21T19:59:33.891Z,6.33
2019-01-21T20:02:04.861Z,5.20
2019-01-21T20:04:34.641Z,6.57
2019-01-21T20:07:04.428Z,6.60
2019-01-21T20:09:34.329Z,5.80
2019-01-21T20:12:04.338Z,6.47
2019-01-21T20:14:34.085Z,5.50
2019-01-21T20:17:03.906Z,6.70
2019-01-21T20:19:34.582Z,5.80
2019-01-21T20:22:07.939Z,6.37
2019-01-21T20:24:37.387Z,5.60
2019-01-21T20:27:07.292Z,5.80
2019-01-21T20:29:37.191Z,6.30
2019-01-21T20:32:08.310Z,6.43
2019-01-21T20:34:38.231Z,6.60
2019-01-21T20:37:08.957Z,5.87
2019-01-21T20:39:38.719Z,5.70
2019-01-21T20:42:08.582Z,5.83
2019-01-21T20:44:40.122Z,6.10
2019-01-21T20:47:10.007Z,5.53
2019-01-21T20:49:41.785Z,5.63
2019-01-21T20:52:14.178Z,5.43
2019-01-21T20:54:43.277Z,5.70
2019-01-21T20:57:14.774Z,6.10
2019-01-21T20:59:44.582Z,6.00
2019-01-21T21:02:14.739Z,6.10
2019-01-21T21:04:44.569Z,5.67
2019-01-21T21:07:14.365Z,5.60
2019-01-21T21:09:44.409Z,5.50
2019-01-21T21:12:15.575Z,6.57
2019-01-21T21:14:47.036Z,6.47
2019-01-21T21:17:16.909Z,8.13
2019-01-21T21:19:46.681Z,13.70
2019-01-21T21:22:21.029Z,11.27
2019-01-21T21:24:47.846Z,11.53
2019-01-21T21:27:17.739Z,12.27
2019-01-21T21:29:47.714Z,11.03
2019-01-21T21:32:19.104Z,12.97
2019-01-21T21:34:50.240Z,11.67
2019-01-21T21:37:21.386Z,12.43
2019-01-21T21:39:51.364Z,13.53
2019-01-21T21:42:21.266Z,12.57
2019-01-21T21:44:51.145Z,15.20
2019-01-21T21:47:21.947Z,12.67
2019-01-21T21:49:51.797Z,10.63
2019-01-21T21:52:27.774Z,10.63
2019-01-21T21:54:55.207Z,7.53
2019-01-21T21:57:25.001Z,9.60
2019-01-21T21:59:54.824Z,8.60
2019-01-21T22:02:24.638Z,8.80
2019-01-21T22:04:54.592Z,7.43
2019-01-21T22:07:24.358Z,8.07
2019-01-21T22:09:55.853Z,8.03
2019-01-21T22:12:25.617Z,7.27
2019-01-21T22:14:55.414Z,7.27
2019-01-21T22:17:25.566Z,7.80
2019-01-21T22:19:57.118Z,6.80
2019-01-21T22:22:26.962Z,6.73
2019-01-21T22:24:56.714Z,6.50
2019-01-21T22:27:26.512Z,6.40
2019-01-21T22:29:58.149Z,7.30
2019-01-21T22:32:27.993Z,6.50
2019-01-21T22:34:57.827Z,5.20
2019-01-21T22:37:27.588Z,5.43
2019-01-21T22:39:59.101Z,5.53
2019-01-21T22:42:28.859Z,5.73
2019-01-21T22:44:58.572Z,5.87
2019-01-21T22:47:28.372Z,4.93
2019-01-21T22:49:58.425Z,5.70
2019-01-21T22:52:30.395Z,5.90
2019-01-21T22:55:00.259Z,5.60
2019-01-21T22:57:33.572Z,4.27
2019-01-21T23:00:03.351Z,4.87
2019-01-21T23:02:33.301Z,4.53
2019-01-21T23:05:03.082Z,5.63
2019-01-21T23:07:32.928Z,4.63
2019-01-21T23:10:02.733Z,5.20
2019-01-21T23:12:32.533Z,4.17
2019-01-21T23:15:02.286Z,5.40
2019-01-21T23:17:32.003Z,5.30
